Time;durP1;ratioP1;P1;durP2;ratioP2;P2;SDS_P1;SDS_P2;PMS_P1;PMS_P2;Temp;Humidity;BMP_temperature;BMP_pressure;BME280_temperature;BME280_humidity;BME280_pressure;Samples;Min_cycle;Max_cycle;Signal;HPM_P1;HPM_P2
2024/04/03 00:01:39;;;;;;;2.85;1.98;;;11.00;1.00;;;;;;4956167;29;20019;-76
2024/04/03 00:04:06;;;;;;;6.35;2.05;;;11.00;1.00;;;;;;4955901;29;20162;-76
2024/04/03 00:06:32;;;;;;;2.10;2.00;;;10.90;1.00;;;;;;4954524;29;20402;-76
2024/04/03 00:08:58;;;;;;;2.65;1.80;;;10.90;1.00;;;;;;4955902;29;20023;-76
2024/04/03 00:11:23;;;;;;;4.80;2.78;;;10.80;1.00;;;;;;4955776;29;20038;-76
2024/04/03 00:13:49;;;;;;;2.05;1.70;;;10.90;1.00;;;;;;4955592;29;20019;-77
2024/04/03 00:16:15;;;;;;;3.53;2.25;;;10.80;1.00;;;;;;4955846;29;20487;-77
2024/04/03 00:18:40;;;;;;;2.58;2.33;;;10.80;1.00;;;;;;4955717;29;20624;-77
2024/04/03 00:21:06;;;;;;;4.20;2.08;;;10.70;1.00;;;;;;4955641;29;20027;-77
2024/04/03 00:23:32;;;;;;;4.97;2.60;;;10.70;1.00;;;;;;4955657;29;20031;-76
2024/04/03 00:25:59;;;;;;;3.58;2.20;;;10.70;1.00;;;;;;4955574;29;20509;-76
2024/04/03 00:28:27;;;;;;;2.60;2.15;;;10.70;1.00;;;;;;4955598;29;20027;-76
2024/04/03 00:30:53;;;;;;;2.45;2.25;;;10.70;1.00;;;;;;4955285;29;20515;-76
2024/04/03 00:33:19;;;;;;;2.58;2.38;;;10.60;1.00;;;;;;4955384;28;20035;-77
2024/04/03 00:35:55;;;;;;;4.00;2.17;;;10.60;1.00;;;;;;4955447;28;20070;-76
2024/04/03 00:38:21;;;;;;;5.65;2.90;;;10.70;1.00;;;;;;4954149;29;20032;-77
2024/04/03 00:40:57;;;;;;;4.93;2.88;;;10.60;1.00;;;;;;4954174;29;20026;-76
2024/04/03 00:43:24;;;;;;;4.38;3.05;;;10.60;1.00;;;;;;4955455;29;20035;-76
2024/04/03 00:45:50;;;;;;;5.43;2.80;;;10.60;1.00;;;;;;4954068;29;20039;-77
2024/04/03 00:48:21;;;;;;;5.47;2.92;;;10.60;1.00;;;;;;4937966;29;20031;-77
2024/04/03 00:50:48;;;;;;;3.40;2.80;;;10.60;1.00;;;;;;4955230;29;20466;-76
2024/04/03 00:53:15;;;;;;;3.08;2.72;;;10.60;1.00;;;;;;4954435;28;20031;-76
2024/04/03 00:55:41;;;;;;;3.08;2.78;;;10.60;1.00;;;;;;4955117;29;20034;-76
2024/04/03 00:58:07;;;;;;;2.53;2.33;;;10.60;1.00;;;;;;4953743;29;20114;-77
2024/04/03 01:00:35;;;;;;;4.10;3.05;;;10.60;1.00;;;;;;4954971;29;20142;-76
2024/04/03 01:03:03;;;;;;;2.70;2.50;;;10.60;1.00;;;;;;4953519;29;20035;-76
2024/04/03 01:05:28;;;;;;;5.47;3.45;;;10.60;1.00;;;;;;4954961;29;20518;-76
2024/04/03 01:07:54;;;;;;;5.45;3.05;;;10.50;1.00;;;;;;4937896;29;20035;-77
2024/04/03 01:10:20;;;;;;;3.38;3.00;;;10.50;1.00;;;;;;4954872;29;20443;-76
2024/04/03 01:12:46;;;;;;;4.55;3.25;;;10.50;1.00;;;;;;4954563;28;20039;-76
2024/04/03 01:15:12;;;;;;;4.10;3.15;;;10.50;1.00;;;;;;4954924;28;20494;-76
2024/04/03 01:17:38;;;;;;;4.07;3.33;;;10.50;1.00;;;;;;4953339;28;20035;-77
2024/04/03 01:20:08;;;;;;;3.30;3.05;;;10.50;1.00;;;;;;4954728;29;20395;-77
2024/04/03 01:22:34;;;;;;;5.15;3.20;;;10.50;1.00;;;;;;4953367;29;20027;-77
2024/04/03 01:25:00;;;;;;;3.78;3.08;;;10.60;1.00;;;;;;4954789;29;20431;-76
2024/04/03 01:27:27;;;;;;;3.35;3.05;;;10.60;1.00;;;;;;4969462;28;20040;-76
2024/04/03 01:29:53;;;;;;;9.18;3.38;;;10.60;1.00;;;;;;4969225;28;20050;-77
2024/04/03 01:32:19;;;;;;;4.18;3.70;;;10.50;1.00;;;;;;4954740;29;20031;-76
2024/04/03 01:34:46;;;;;;;4.70;3.03;;;10.50;1.00;;;;;;4954517;29;20047;-77
2024/04/03 01:37:12;;;;;;;4.55;2.85;;;10.50;1.00;;;;;;4954626;29;20043;-77
2024/04/03 01:39:37;;;;;;;4.95;2.72;;;10.50;1.00;;;;;;4954522;29;20114;-76
2024/04/03 01:42:03;;;;;;;5.38;3.70;;;10.60;1.00;;;;;;4954591;29;20443;-76
2024/04/03 01:44:29;;;;;;;5.13;3.40;;;10.50;8.40;;;;;;4954552;29;20114;-76
2024/04/03 01:46:55;;;;;;;5.57;3.50;;;10.60;1.00;;;;;;4954632;29;20059;-77
2024/04/03 01:49:20;;;;;;;3.67;3.30;;;10.60;1.00;;;;;;4937261;29;20034;-77
2024/04/03 01:51:46;;;;;;;5.25;3.80;;;10.60;1.00;;;;;;4954592;29;20031;-77
2024/04/03 01:54:12;;;;;;;4.15;3.38;;;10.70;1.00;;;;;;4952879;29;20038;-77
2024/04/03 01:56:37;;;;;;;3.38;3.08;;;10.70;1.00;;;;;;4953027;29;20450;-77
2024/04/03 01:59:03;;;;;;;6.63;3.65;;;10.60;11.40;;;;;;4953088;29;20035;-76
2024/04/03 02:01:28;;;;;;;7.18;3.08;;;10.60;4.70;;;;;;4954417;29;20035;-76
2024/04/03 02:03:54;;;;;;;4.07;3.17;;;10.60;7.30;;;;;;4956101;28;20032;-76
2024/04/03 02:06:20;;;;;;;5.72;3.10;;;10.70;8.40;;;;;;4958185;29;20027;-76
2024/04/03 02:08:45;;;;;;;4.95;3.30;;;10.60;10.70;;;;;;4940961;29;20098;-76
2024/04/03 02:11:11;;;;;;;4.53;3.08;;;10.70;21.00;;;;;;4958084;28;20094;-76
2024/04/03 02:13:37;;;;;;;6.05;3.38;;;10.60;18.30;;;;;;4957994;29;20023;-76
2024/04/03 02:16:03;;;;;;;4.30;3.75;;;10.60;26.70;;;;;;4957914;28;20424;-76
2024/04/03 02:18:28;;;;;;;6.00;3.58;;;10.50;28.00;;;;;;4949330;29;20050;-76
2024/04/03 02:20:54;;;;;;;4.43;2.90;;;10.50;24.20;;;;;;4957915;29;20023;-76
2024/04/03 02:23:20;;;;;;;4.50;3.13;;;10.60;23.00;;;;;;4957794;29;20086;-76
2024/04/03 02:25:45;;;;;;;3.53;3.22;;;10.60;22.00;;;;;;4957763;29;20027;-76
2024/04/03 02:28:11;;;;;;;4.00;3.63;;;10.60;22.80;;;;;;4957846;29;20118;-76
2024/04/03 02:30:37;;;;;;;3.80;3.42;;;10.60;25.00;;;;;;4940364;29;20455;-77
2024/04/03 02:33:03;;;;;;;11.02;3.15;;;10.60;25.20;;;;;;4957782;29;20073;-77
2024/04/03 02:35:29;;;;;;;7.57;3.58;;;10.60;31.70;;;;;;4957605;29;20114;-76
2024/04/03 02:37:54;;;;;;;6.70;3.42;;;10.50;31.80;;;;;;4957669;29;20640;-76
2024/04/03 02:40:20;;;;;;;4.28;3.88;;;10.60;33.60;;;;;;4957452;29;20027;-76
2024/04/03 02:42:46;;;;;;;6.20;3.70;;;10.60;28.80;;;;;;4957632;29;20027;-77
2024/04/03 02:45:11;;;;;;;6.05;3.47;;;10.70;31.10;;;;;;4957591;29;20476;-77
2024/04/03 02:47:40;;;;;;;5.05;3.28;;;10.60;29.10;;;;;;4957522;29;20073;-77
2024/04/03 02:50:06;;;;;;;4.82;3.20;;;10.70;31.30;;;;;;4956099;29;20027;-77
2024/04/03 02:52:31;;;;;;;5.72;3.83;;;10.70;32.80;;;;;;4956048;29;20402;-77
2024/04/03 02:54:57;;;;;;;6.47;3.70;;;10.80;29.80;;;;;;4955918;28;20035;-77
2024/04/03 02:57:23;;;;;;;4.30;3.80;;;10.70;24.30;;;;;;4957450;28;20062;-77
2024/04/03 02:59:48;;;;;;;5.80;3.97;;;10.80;24.60;;;;;;4957335;28;20113;-76
2024/04/03 03:02:14;;;;;;;5.78;3.28;;;10.80;22.70;;;;;;4957212;29;20031;-77
2024/04/03 03:04:41;;;;;;;4.50;3.35;;;10.80;29.30;;;;;;4957122;29;20034;-77
2024/04/03 03:07:08;;;;;;;3.55;3.08;;;10.80;22.00;;;;;;4939773;29;20122;-77
2024/04/03 03:09:34;;;;;;;5.63;3.78;;;10.90;19.40;;;;;;4956924;29;20027;-77
2024/04/03 03:12:00;;;;;;;6.60;3.58;;;10.90;18.00;;;;;;4957060;29;20031;-76
2024/04/03 03:14:25;;;;;;;4.05;3.50;;;10.90;20.10;;;;;;4956782;28;20038;-77
2024/04/03 03:16:51;;;;;;;7.60;3.90;;;10.90;21.20;;;;;;4956541;29;20399;-76
2024/04/03 03:19:16;;;;;;;4.60;3.65;;;10.90;30.50;;;;;;4955335;29;20031;-77
2024/04/03 03:21:42;;;;;;;6.68;3.47;;;10.90;32.00;;;;;;4956869;29;20029;-77
2024/04/03 03:24:08;;;;;;;5.88;3.42;;;10.90;30.80;;;;;;4956778;29;20513;-77
2024/04/03 03:26:33;;;;;;;3.70;3.38;;;10.80;36.40;;;;;;4955478;29;20396;-77
2024/04/03 03:28:59;;;;;;;6.30;3.95;;;10.80;39.80;;;;;;4956697;29;20031;-77
2024/04/03 03:31:25;;;;;;;5.05;3.38;;;10.90;43.20;;;;;;4956586;29;20047;-77
2024/04/03 03:33:50;;;;;;;3.78;3.50;;;10.90;39.10;;;;;;4956523;29;20038;-77
2024/04/03 03:36:16;;;;;;;6.57;4.15;;;10.90;36.80;;;;;;4956543;29;20019;-77
2024/04/03 03:38:42;;;;;;;4.30;3.90;;;10.90;37.50;;;;;;4951696;29;20032;-76
2024/04/03 03:41:07;;;;;;;5.88;3.85;;;10.90;37.10;;;;;;4955311;29;20096;-77
2024/04/03 03:43:33;;;;;;;5.40;3.97;;;11.00;34.60;;;;;;4949810;29;20027;-77
2024/04/03 03:46:00;;;;;;;4.78;4.05;;;11.00;36.50;;;;;;4956375;29;20027;-76
2024/04/03 03:53:58;;;;;;;4.00;3.60;;;11.00;39.10;;;;;;4956207;29;20038;-77
2024/04/03 03:56:24;;;;;;;5.90;3.72;;;11.00;36.90;;;;;;4956119;28;20016;-77
2024/04/03 03:58:50;;;;;;;4.22;3.88;;;11.00;41.80;;;;;;4956040;29;20498;-77
2024/04/03 04:01:16;;;;;;;6.15;3.80;;;11.00;46.30;;;;;;4956130;29;20027;-77
2024/04/03 04:03:42;;;;;;;7.15;4.30;;;11.00;49.40;;;;;;4955920;29;20038;-77
2024/04/03 04:06:07;;;;;;;5.68;3.90;;;11.00;47.30;;;;;;4956119;29;20032;-77
2024/04/03 04:08:33;;;;;;;5.90;3.75;;;11.00;49.90;;;;;;4956016;29;20427;-77
2024/04/03 04:11:00;;;;;;;5.75;3.53;;;11.00;47.80;;;;;;4954533;29;20031;-77
2024/04/03 04:13:26;;;;;;;4.22;3.70;;;11.00;49.90;;;;;;4955809;29;20027;-76
2024/04/03 04:15:52;;;;;;;8.73;4.10;;;11.10;44.60;;;;;;4955858;29;20396;-77
2024/04/03 04:18:18;;;;;;;4.82;3.60;;;11.10;47.60;;;;;;4955723;29;20043;-77
2024/04/03 04:20:53;;;;;;;4.35;3.78;;;11.10;52.50;;;;;;4955419;29;20023;-76
2024/04/03 04:23:19;;;;;;;7.15;4.05;;;11.10;55.30;;;;;;4938344;29;20024;-77
2024/04/03 04:25:54;;;;;;;4.57;3.40;;;11.10;51.70;;;;;;4955548;29;20403;-77
2024/04/03 04:28:20;;;;;;;7.88;4.28;;;11.10;50.80;;;;;;4954694;28;20030;-76
2024/04/03 04:30:48;;;;;;;7.38;3.53;;;11.10;52.80;;;;;;4955310;28;20047;-77
2024/04/03 04:33:14;;;;;;;6.55;3.60;;;11.10;57.50;;;;;;4954075;29;20038;-77
2024/04/03 04:35:39;;;;;;;4.47;3.03;;;11.00;63.50;;;;;;4938228;29;20024;-77
2024/04/03 04:38:05;;;;;;;4.20;3.63;;;11.00;68.20;;;;;;4955434;29;20483;-77
2024/04/03 04:40:31;;;;;;;6.78;3.63;;;11.00;67.80;;;;;;4955387;29;20026;-76
2024/04/03 04:42:56;;;;;;;4.60;3.78;;;11.00;70.60;;;;;;4955398;29;20062;-76
2024/04/03 04:45:25;;;;;;;5.15;3.60;;;11.00;68.30;;;;;;4953792;28;20965;-77
2024/04/03 04:47:51;;;;;;;3.80;3.05;;;11.00;62.00;;;;;;4955158;29;20015;-77
2024/04/03 04:50:16;;;;;;;6.05;3.47;;;11.00;63.40;;;;;;4955053;28;20085;-76
2024/04/03 04:52:42;;;;;;;7.20;3.53;;;11.10;66.10;;;;;;4953246;29;20494;-77
2024/04/03 04:55:08;;;;;;;6.18;3.53;;;11.10;64.80;;;;;;4954978;29;20034;-77
2024/04/03 04:57:33;;;;;;;4.90;3.05;;;11.10;69.60;;;;;;4952312;29;20125;-77
2024/04/03 04:59:59;;;;;;;4.50;3.70;;;11.10;70.50;;;;;;4953617;29;20031;-76
2024/04/03 05:02:25;;;;;;;4.45;3.05;;;11.10;75.40;;;;;;4953817;29;20377;-77
2024/04/03 05:04:52;;;;;;;6.32;3.58;;;11.10;76.70;;;;;;4953701;29;20038;-77
2024/04/03 05:07:18;;;;;;;5.57;3.47;;;11.10;73.70;;;;;;4934488;29;20384;-76
2024/04/03 05:09:45;;;;;;;5.35;3.30;;;11.00;82.50;;;;;;4950205;29;20109;-76
2024/04/03 05:12:13;;;;;;;9.55;3.55;;;11.10;83.00;;;;;;4951743;29;20077;-76
2024/04/03 05:14:39;;;;;;;5.57;3.20;;;11.00;81.40;;;;;;4949936;29;20050;-76
2024/04/03 05:17:05;;;;;;;8.93;3.47;;;11.00;83.20;;;;;;4950872;29;20472;-76
2024/04/03 05:19:31;;;;;;;7.03;3.33;;;11.10;81.90;;;;;;4951545;29;20038;-76
2024/04/03 05:21:56;;;;;;;7.80;3.58;;;11.10;80.10;;;;;;4949200;29;20020;-76
2024/04/03 05:24:22;;;;;;;3.90;2.80;;;11.10;82.30;;;;;;4951623;29;20027;-76
2024/04/03 05:26:48;;;;;;;7.90;3.30;;;11.10;85.00;;;;;;4951863;29;20435;-76
2024/04/03 05:29:14;;;;;;;4.28;3.80;;;11.10;90.10;;;;;;4949218;29;20035;-76
2024/04/03 05:31:43;;;;;;;8.55;3.88;;;11.10;93.00;;;;;;4951021;29;20027;-76
2024/04/03 05:34:08;;;;;;;8.52;4.22;;;11.00;94.20;;;;;;4949716;29;20027;-76
2024/04/03 05:36:34;;;;;;;9.15;3.40;;;11.00;92.40;;;;;;4950333;29;20023;-76
2024/04/03 05:39:00;;;;;;;8.40;3.63;;;11.10;93.10;;;;;;4954850;28;20032;-76
2024/04/03 05:41:36;;;;;;;4.65;3.75;;;11.00;91.30;;;;;;4957189;29;20051;-76
2024/04/03 05:44:07;;;;;;;4.32;3.35;;;11.10;90.50;;;;;;4956783;29;20102;-76
2024/04/03 05:46:37;;;;;;;4.82;3.38;;;11.10;92.00;;;;;;4956817;29;20118;-76
2024/04/03 05:49:02;;;;;;;5.50;3.25;;;11.10;89.40;;;;;;4956893;29;20100;-77
2024/04/03 05:51:29;;;;;;;7.70;3.15;;;11.20;90.80;;;;;;4956996;29;20035;-76
2024/04/03 05:53:55;;;;;;;6.05;3.60;;;11.20;88.10;;;;;;4955264;29;20028;-76
2024/04/03 05:56:20;;;;;;;6.22;3.50;;;11.30;89.60;;;;;;4955393;29;20102;-76
2024/04/03 05:58:47;;;;;;;3.72;3.42;;;11.30;90.20;;;;;;4955379;29;20471;-76
2024/04/03 06:01:15;;;;;;;4.20;3.20;;;11.30;91.00;;;;;;4939431;29;20039;-76
2024/04/03 06:03:41;;;;;;;8.98;3.28;;;11.30;90.70;;;;;;4955469;29;20038;-77
2024/04/03 06:06:07;;;;;;;5.93;3.05;;;11.30;91.30;;;;;;4956656;29;20027;-76
2024/04/03 06:08:32;;;;;;;7.68;3.33;;;11.30;94.00;;;;;;4955401;28;20027;-77
2024/04/03 06:10:58;;;;;;;21.60;3.42;;;11.30;92.20;;;;;;4955256;29;20031;-77
2024/04/03 06:13:23;;;;;;;5.18;3.42;;;11.30;90.50;;;;;;4956560;29;20027;-77
2024/04/03 06:15:49;;;;;;;10.73;3.78;;;11.40;93.40;;;;;;4955366;29;20031;-77
2024/04/03 06:18:15;;;;;;;8.88;3.35;;;11.40;92.10;;;;;;4954900;29;20078;-76
2024/04/03 06:20:41;;;;;;;12.60;3.92;;;11.40;93.30;;;;;;4939247;29;20066;-77
2024/04/03 06:23:09;;;;;;;10.88;3.80;;;11.50;95.50;;;;;;4937147;29;20431;-76
2024/04/03 06:25:36;;;;;;;6.97;3.28;;;11.50;97.30;;;;;;4955014;29;20542;-77
2024/04/03 06:28:03;;;;;;;6.75;3.30;;;11.50;97.60;;;;;;4954510;29;20040;-76
2024/04/03 06:30:29;;;;;;;6.95;3.90;;;11.50;95.70;;;;;;4938100;29;20494;-77
2024/04/03 06:32:54;;;;;;;7.72;3.92;;;11.50;94.30;;;;;;4954908;29;20106;-76
2024/04/03 06:35:20;;;;;;;7.38;3.65;;;11.60;93.20;;;;;;4956293;29;20114;-77
2024/04/03 06:37:46;;;;;;;7.85;5.95;;;11.60;93.80;;;;;;4956113;29;20376;-77
2024/04/03 06:40:14;;;;;;;10.23;5.30;;;11.60;93.50;;;;;;4956071;29;20031;-77
2024/04/03 06:42:40;;;;;;;6.13;4.20;;;11.60;96.50;;;;;;4954753;29;20158;-77
2024/04/03 06:45:06;;;;;;;6.93;4.20;;;11.60;97.50;;;;;;4950639;29;20399;-77
2024/04/03 06:47:33;;;;;;;9.82;4.55;;;11.60;99.40;;;;;;4946870;29;20094;-77
2024/04/03 06:49:58;;;;;;;9.00;4.40;;;11.70;99.90;;;;;;4954784;28;20027;-77
2024/04/03 06:52:24;;;;;;;8.95;4.55;;;11.70;99.90;;;;;;4952544;29;20558;-77
2024/04/03 06:54:51;;;;;;;12.45;4.32;;;11.70;99.50;;;;;;4955839;29;20554;-77
2024/04/03 06:57:17;;;;;;;11.48;4.28;;;11.70;99.50;;;;;;4955962;29;20023;-77
2024/04/03 06:59:43;;;;;;;7.05;4.65;;;11.80;99.90;;;;;;4955798;28;20023;-77
2024/04/03 07:02:08;;;;;;;10.68;4.50;;;11.80;99.90;;;;;;4955764;29;20015;-77
2024/04/03 07:04:34;;;;;;;6.22;4.32;;;11.80;99.90;;;;;;4955669;29;20027;-76
2024/04/03 07:07:01;;;;;;;6.90;4.78;;;11.80;99.90;;;;;;4954184;29;20023;-76
2024/04/03 07:09:27;;;;;;;10.75;4.45;;;11.80;99.90;;;;;;4954292;29;20399;-76
2024/04/03 07:11:53;;;;;;;7.30;5.28;;;11.80;99.90;;;;;;4954135;29;20035;-76
2024/04/03 07:14:22;;;;;;;8.77;5.38;;;11.80;99.90;;;;;;4953413;29;20028;-76
2024/04/03 07:16:48;;;;;;;10.07;5.65;;;11.90;99.90;;;;;;4936495;29;20070;-76
2024/04/03 07:19:14;;;;;;;5.50;4.95;;;11.90;99.90;;;;;;4953768;29;20019;-76
2024/04/03 07:21:41;;;;;;;7.53;5.68;;;11.90;99.90;;;;;;4936309;29;20030;-76
2024/04/03 07:24:08;;;;;;;9.40;6.43;;;11.80;99.90;;;;;;4936353;29;20032;-76
2024/04/03 07:26:34;;;;;;;11.02;6.15;;;11.90;99.90;;;;;;4936376;29;20038;-76
2024/04/03 07:28:59;;;;;;;11.25;6.10;;;12.00;99.90;;;;;;4954792;28;20392;-76
2024/04/03 07:31:25;;;;;;;9.82;6.82;;;12.00;99.90;;;;;;4955101;28;20050;-76
2024/04/03 07:33:53;;;;;;;9.43;6.97;;;12.10;99.90;;;;;;4953790;29;20071;-76
2024/04/03 07:36:21;;;;;;;9.25;7.32;;;12.20;99.90;;;;;;4937601;29;20033;-76
2024/04/03 07:38:47;;;;;;;11.13;8.15;;;12.20;99.90;;;;;;4954982;29;20098;-76
2024/04/03 07:41:31;;;;;;;12.07;7.95;;;12.20;99.90;;;;;;4955066;29;20114;-76
2024/04/03 07:43:56;;;;;;;10.88;7.65;;;12.20;99.90;;;;;;4951402;29;20072;-76
2024/04/03 07:46:23;;;;;;;11.10;6.95;;;12.30;99.90;;;;;;4954847;29;20490;-76
2024/04/03 07:48:48;;;;;;;8.52;7.55;;;12.30;99.90;;;;;;4954682;29;20163;-76
2024/04/03 07:51:14;;;;;;;9.80;8.38;;;12.30;99.90;;;;;;4954792;29;20098;-76
2024/04/03 07:53:40;;;;;;;13.27;7.40;;;12.40;99.90;;;;;;4953083;28;20045;-76
2024/04/03 07:56:06;;;;;;;14.80;8.43;;;12.40;99.90;;;;;;4951933;29;20015;-77
2024/04/03 07:58:32;;;;;;;9.18;8.23;;;12.50;99.90;;;;;;4954685;29;20023;-76
2024/04/03 08:01:01;;;;;;;12.98;7.70;;;12.50;99.90;;;;;;4953995;28;20027;-76
2024/04/03 08:03:27;;;;;;;9.93;7.32;;;12.50;99.90;;;;;;4954470;28;20117;-76
2024/04/03 08:05:54;;;;;;;11.57;7.05;;;12.50;99.90;;;;;;4954388;29;20121;-76
2024/04/03 08:08:23;;;;;;;13.93;7.45;;;12.50;99.90;;;;;;4937216;29;20171;-76
2024/04/03 08:10:48;;;;;;;14.57;7.60;;;12.60;99.90;;;;;;4954456;29;20027;-76
2024/04/03 08:13:14;;;;;;;15.25;8.02;;;12.60;99.90;;;;;;4954168;29;20035;-76
2024/04/03 08:15:40;;;;;;;12.93;8.40;;;12.50;99.90;;;;;;4954247;29;20020;-76
2024/04/03 08:18:06;;;;;;;16.05;8.23;;;12.50;99.90;;;;;;4954094;29;20638;-76
2024/04/03 08:20:32;;;;;;;18.38;8.15;;;12.40;99.90;;;;;;4937003;29;20062;-76
2024/04/03 08:22:57;;;;;;;13.52;8.48;;;12.40;99.90;;;;;;4954161;29;20507;-76
2024/04/03 08:25:24;;;;;;;11.82;7.60;;;12.40;99.90;;;;;;4952796;29;20082;-76
2024/04/03 08:27:53;;;;;;;14.80;7.82;;;12.50;99.90;;;;;;4952788;29;20492;-76
2024/04/03 08:30:19;;;;;;;15.27;7.65;;;12.50;99.90;;;;;;4953223;29;20376;-76
2024/04/03 08:32:45;;;;;;;14.35;7.18;;;12.60;99.90;;;;;;4954078;29;20538;-76
2024/04/03 08:35:11;;;;;;;17.08;9.07;;;12.60;99.90;;;;;;4953961;28;20039;-76
2024/04/03 08:37:37;;;;;;;11.68;8.15;;;12.70;99.90;;;;;;4952595;29;20082;-76
2024/04/03 08:40:03;;;;;;;9.90;7.50;;;12.70;99.90;;;;;;4953874;29;20487;-76
2024/04/03 08:42:29;;;;;;;14.77;8.07;;;12.70;99.90;;;;;;4953865;29;20111;-76
2024/04/03 08:44:57;;;;;;;10.27;7.50;;;12.80;99.90;;;;;;4952246;29;20629;-76
2024/04/03 08:47:24;;;;;;;13.57;8.30;;;12.90;99.90;;;;;;4952503;29;20055;-76
2024/04/03 08:49:50;;;;;;;14.10;8.75;;;13.10;99.90;;;;;;4952470;29;20510;-76
2024/04/03 08:52:18;;;;;;;14.35;7.82;;;13.10;99.90;;;;;;4952337;29;20035;-76
2024/04/03 08:54:45;;;;;;;12.10;7.65;;;13.20;99.90;;;;;;4952237;28;20514;-76
2024/04/03 08:57:10;;;;;;;13.73;7.25;;;13.30;99.90;;;;;;4952433;29;20031;-76
2024/04/03 08:59:39;;;;;;;11.20;7.13;;;13.30;99.90;;;;;;4952203;28;20031;-76
2024/04/03 09:02:05;;;;;;;12.98;7.13;;;13.40;99.90;;;;;;4952285;28;20034;-76
2024/04/03 09:04:32;;;;;;;10.45;6.78;;;13.40;99.90;;;;;;4936309;29;20075;-76
2024/04/03 09:06:59;;;;;;;12.60;6.68;;;13.50;99.90;;;;;;4936189;29;20118;-76
2024/04/03 09:09:26;;;;;;;9.10;6.80;;;13.50;99.90;;;;;;4948317;29;20027;-77
2024/04/03 09:12:03;;;;;;;10.93;6.60;;;13.60;99.90;;;;;;4949423;29;20027;-77
2024/04/03 09:14:29;;;;;;;7.50;5.80;;;13.60;99.90;;;;;;4949936;29;20031;-76
2024/04/03 09:16:59;;;;;;;13.10;6.40;;;13.50;94.40;;;;;;4953432;28;20539;-76
2024/04/03 09:19:26;;;;;;;11.60;5.43;;;13.50;74.80;;;;;;4953187;28;20368;-77
2024/04/03 09:21:55;;;;;;;9.77;6.10;;;13.50;76.50;;;;;;4953378;29;20031;-77
2024/04/03 09:24:21;;;;;;;11.98;6.35;;;13.50;99.90;;;;;;4952052;28;20082;-76
2024/04/03 09:26:51;;;;;;;14.15;6.65;;;13.60;99.90;;;;;;4953193;29;20090;-77
2024/04/03 09:29:17;;;;;;;7.45;6.15;;;13.60;99.90;;;;;;4951587;29;20031;-77
2024/04/03 09:31:43;;;;;;;13.65;7.30;;;13.70;99.90;;;;;;4936008;29;20066;-76
2024/04/03 09:34:10;;;;;;;13.40;6.15;;;13.80;98.10;;;;;;4951866;29;20126;-76
2024/04/03 09:36:36;;;;;;;10.30;6.57;;;13.90;96.20;;;;;;4948151;29;20027;-77
2024/04/03 09:39:02;;;;;;;6.80;5.68;;;13.90;98.20;;;;;;4953053;29;20122;-77
2024/04/03 09:41:31;;;;;;;11.52;6.18;;;14.00;92.30;;;;;;4951929;29;20632;-76
2024/04/03 09:44:02;;;;;;;12.70;4.55;;;14.00;99.90;;;;;;4953172;29;20035;-76
2024/04/03 09:46:51;;;;;;;10.68;5.03;;;14.10;92.40;;;;;;4949397;29;20031;-77
2024/04/03 09:49:26;;;;;;;14.10;5.85;;;14.10;88.20;;;;;;4966743;28;20039;-77
2024/04/03 09:51:53;;;;;;;15.55;7.90;;;14.10;96.40;;;;;;4953060;29;20034;-77
2024/04/03 09:54:20;;;;;;;11.45;4.90;;;14.20;99.90;;;;;;4967625;28;20463;-77
2024/04/03 09:56:46;;;;;;;4.43;4.03;;;14.20;91.30;;;;;;4952647;29;20063;-77
2024/04/03 09:59:13;;;;;;;6.22;4.57;;;14.20;66.20;;;;;;4951131;29;20023;-77
2024/04/03 10:01:40;;;;;;;8.48;4.25;;;14.20;55.60;;;;;;4952748;29;20023;-77
2024/04/03 10:04:08;;;;;;;6.70;3.33;;;14.30;29.90;;;;;;4952450;29;20616;-77
2024/04/03 10:06:40;;;;;;;12.55;5.20;;;14.30;1.00;;;;;;4954079;29;20020;-77
2024/04/03 10:09:21;;;;;;;13.38;7.30;;;14.40;38.80;;;;;;4954046;29;20504;-77
2024/04/03 10:11:48;;;;;;;11.00;6.43;;;14.30;43.90;;;;;;4950379;29;20058;-77
2024/04/03 10:14:29;;;;;;;16.63;6.72;;;14.40;57.00;;;;;;4953101;29;20031;-77
2024/04/03 10:16:56;;;;;;;10.75;5.97;;;14.40;59.80;;;;;;4953103;29;20035;-77
2024/04/03 10:19:24;;;;;;;9.40;4.70;;;14.40;55.60;;;;;;4951592;29;20395;-77
2024/04/03 10:21:50;;;;;;;10.40;4.28;;;14.40;1.00;;;;;;4935804;29;20090;-77
2024/04/03 10:24:19;;;;;;;8.02;4.47;;;14.40;29.10;;;;;;4968258;28;20027;-77
2024/04/03 10:26:48;;;;;;;6.75;4.65;;;14.40;14.00;;;;;;4938955;29;20030;-77
2024/04/03 10:29:14;;;;;;;11.02;4.95;;;14.40;27.30;;;;;;4956109;29;20031;-77
2024/04/03 10:31:40;;;;;;;9.25;5.40;;;14.50;29.50;;;;;;4956558;29;20376;-77
2024/04/03 10:34:06;;;;;;;14.35;5.47;;;14.50;37.00;;;;;;4956303;28;20038;-77
2024/04/03 10:36:35;;;;;;;7.53;5.13;;;14.50;46.50;;;;;;4956327;29;20066;-77
2024/04/03 10:39:05;;;;;;;7.75;5.00;;;14.50;43.60;;;;;;4954859;29;20506;-77
2024/04/03 10:41:30;;;;;;;9.73;4.30;;;14.50;21.60;;;;;;4955071;29;20023;-77
2024/04/03 10:43:56;;;;;;;4.85;3.90;;;14.50;11.20;;;;;;4956118;29;20070;-77
2024/04/03 10:46:26;;;;;;;8.82;4.35;;;14.50;1.00;;;;;;4954621;29;20063;-77
2024/04/03 10:48:55;;;;;;;8.10;4.40;;;14.50;1.00;;;;;;4954774;29;20116;-77
2024/04/03 10:51:22;;;;;;;6.97;3.28;;;14.50;1.00;;;;;;4954767;29;20395;-77
2024/04/03 10:53:49;;;;;;;5.55;3.03;;;14.50;1.00;;;;;;4938064;29;20118;-77
2024/04/03 10:56:18;;;;;;;4.07;2.72;;;14.50;1.00;;;;;;4955943;29;20047;-77
2024/04/03 10:58:44;;;;;;;3.65;2.63;;;14.50;1.00;;;;;;4954573;29;20031;-77
2024/04/03 11:01:11;;;;;;;5.60;3.30;;;14.50;99.90;;;;;;4954396;29;20070;-77
2024/04/03 11:03:40;;;;;;;8.55;3.20;;;14.50;1.00;;;;;;4954669;29;20027;-77
2024/04/03 11:06:09;;;;;;;9.02;2.92;;;14.60;1.00;;;;;;4955583;29;20031;-77
2024/04/03 11:08:36;;;;;;;6.30;2.85;;;14.60;1.00;;;;;;4955748;29;20491;-77
2024/04/03 11:11:07;;;;;;;4.78;2.47;;;14.70;1.00;;;;;;4955691;29;20058;-77
2024/04/03 11:13:33;;;;;;;4.38;2.95;;;14.70;1.00;;;;;;4938585;29;20049;-77
2024/04/03 11:15:59;;;;;;;6.72;2.58;;;14.80;1.00;;;;;;4955603;29;20035;-77
2024/04/03 11:18:26;;;;;;;8.18;2.72;;;15.00;1.00;;;;;;4955739;28;20030;-77
2024/04/03 11:20:51;;;;;;;5.95;2.92;;;15.00;1.00;;;;;;4947805;29;20059;-77
2024/04/03 11:23:18;;;;;;;9.45;3.97;;;15.10;99.90;;;;;;4953929;29;20046;-77
2024/04/03 11:25:44;;;;;;;10.73;3.20;;;15.10;99.90;;;;;;4955395;29;20491;-77
2024/04/03 11:28:09;;;;;;;6.50;2.75;;;15.10;99.90;;;;;;4955339;29;20034;-77
2024/04/03 11:30:40;;;;;;;5.10;2.33;;;15.20;99.90;;;;;;4955257;28;20079;-77
2024/04/03 11:33:06;;;;;;;5.63;1.60;;;15.30;99.90;;;;;;4953976;28;20027;-77
2024/04/03 11:35:32;;;;;;;4.30;2.25;;;15.40;70.40;;;;;;4955269;28;20380;-77
2024/04/03 11:38:01;;;;;;;4.35;1.98;;;15.50;99.90;;;;;;4954632;29;20432;-77
2024/04/03 11:40:27;;;;;;;5.03;2.28;;;15.60;99.90;;;;;;4953595;29;20111;-77
2024/04/03 11:42:53;;;;;;;3.97;1.73;;;15.70;99.90;;;;;;4937997;29;20122;-77
2024/04/03 11:45:18;;;;;;;4.63;1.80;;;15.90;99.90;;;;;;4955067;29;20395;-77
2024/04/03 11:47:44;;;;;;;4.65;1.95;;;16.00;99.90;;;;;;4954993;29;20110;-77
2024/04/03 11:50:10;;;;;;;3.72;1.20;;;16.00;99.90;;;;;;4954972;29;20027;-77
2024/04/03 11:52:36;;;;;;;3.05;1.25;;;15.90;1.00;;;;;;4953355;29;20065;-77
2024/04/03 11:55:03;;;;;;;2.80;1.40;;;15.90;99.90;;;;;;4950548;29;20063;-77
2024/04/03 11:57:29;;;;;;;3.95;1.40;;;15.90;99.90;;;;;;4953553;29;20023;-77
2024/04/03 11:59:55;;;;;;;2.05;1.52;;;16.20;1.00;;;;;;4953471;29;20384;-77
2024/04/03 12:02:22;;;;;;;1.88;1.10;;;16.40;1.00;;;;;;4953364;29;20034;-77
2024/04/03 12:04:48;;;;;;;5.97;1.60;;;16.60;99.90;;;;;;4954700;29;20015;-77
2024/04/03 12:07:14;;;;;;;6.20;1.60;;;16.60;99.90;;;;;;4954520;28;20507;-76
2024/04/03 12:09:42;;;;;;;6.38;2.08;;;16.80;1.00;;;;;;4954456;29;20030;-77
2024/04/03 12:12:09;;;;;;;4.30;1.40;;;16.90;1.00;;;;;;4953210;29;20037;-77
2024/04/03 12:14:35;;;;;;;6.78;1.90;;;17.20;99.90;;;;;;4953101;29;20031;-77
2024/04/03 12:17:05;;;;;;;3.60;2.22;;;17.40;1.00;;;;;;4954382;28;20514;-77
2024/04/03 12:20:03;;;;;;;4.45;2.15;;;17.40;99.90;;;;;;4954144;28;20562;-77
2024/04/03 12:22:30;;;;;;;5.60;1.60;;;17.40;99.90;;;;;;4951264;29;20027;-77
2024/04/03 12:24:56;;;;;;;2.83;1.23;;;17.40;99.90;;;;;;4951347;29;20032;-77
2024/04/03 12:27:23;;;;;;;1.83;1.50;;;17.40;99.90;;;;;;4949038;29;20118;-76
2024/04/03 12:29:51;;;;;;;2.85;1.45;;;17.30;99.90;;;;;;4950332;29;20047;-76
2024/04/03 12:32:18;;;;;;;4.65;1.85;;;17.40;99.90;;;;;;4949653;28;20487;-76
2024/04/03 12:34:44;;;;;;;3.83;1.30;;;17.30;99.90;;;;;;4949445;29;20043;-76
2024/04/03 12:37:10;;;;;;;2.88;1.00;;;17.30;98.00;;;;;;4950122;29;20386;-76
2024/04/03 12:39:37;;;;;;;5.30;2.00;;;17.20;99.90;;;;;;4947724;29;20027;-76
2024/04/03 12:42:03;;;;;;;1.15;1.05;;;17.10;99.90;;;;;;4949634;29;20491;-76
2024/04/03 12:44:28;;;;;;;5.22;1.20;;;16.90;73.70;;;;;;4948685;29;20034;-76
2024/04/03 12:46:54;;;;;;;7.93;1.27;;;16.80;90.80;;;;;;4954049;29;20505;-77
2024/04/03 12:49:23;;;;;;;3.47;1.73;;;16.80;99.90;;;;;;4952810;28;20024;-77
2024/04/03 12:51:49;;;;;;;5.88;1.30;;;16.90;99.90;;;;;;4950090;29;20042;-77